Time;durP1;ratioP1;P1;durP2;ratioP2;P2;SDS_P1;SDS_P2;PMS_P1;PMS_P2;Temp;Humidity;BMP_temperature;BMP_pressure;BME280_temperature;BME280_humidity;BME280_pressure;Samples;Min_cycle;Max_cycle;Signal;HPM_P1;HPM_P2
2022/07/19 00:01:16;;;;;;;11.55;10.45;;;;;;;;;;6241111;28;20333;-75
2022/07/19 00:04:38;;;;;;;11.75;10.15;;;;;;;;;;6247524;28;20236;-75
2022/07/19 00:07:59;;;;;;;11.35;10.25;;;;;;;;;;6226925;28;20525;-75
2022/07/19 00:11:19;;;;;;;11.25;10.15;;;;;;;;;;6240543;28;20228;-76
2022/07/19 00:14:40;;;;;;;12.25;10.13;;;;;;;;;;6240450;28;20584;-74
2022/07/19 00:18:00;;;;;;;11.95;10.73;;;;;;;;;;6234047;28;20235;-74
2022/07/19 00:21:22;;;;;;;12.13;10.93;;;;;;;;;;6236062;28;20788;-75
2022/07/19 00:24:43;;;;;;;11.10;9.93;;;;;;;;;;6226793;28;20748;-74
2022/07/19 00:28:04;;;;;;;13.25;11.85;;;;;;;;;;6238227;28;20231;-76
2022/07/19 00:31:25;;;;;;;11.88;10.77;;;;;;;;;;6220005;28;20235;-75
2022/07/19 00:34:46;;;;;;;11.55;10.40;;;;;;;;;;6239226;28;20240;-75
2022/07/19 00:38:08;;;;;;;13.73;11.05;;;;;;;;;;6240581;28;20484;-75
2022/07/19 00:41:29;;;;;;;11.25;10.25;;;;;;;;;;6240230;28;20651;-75
2022/07/19 00:44:50;;;;;;;11.30;10.23;;;;;;;;;;6238040;28;20694;-75
2022/07/19 00:48:10;;;;;;;12.25;11.13;;;;;;;;;;6216540;28;20318;-75
2022/07/19 00:51:34;;;;;;;11.05;10.15;;;;;;;;;;6237833;28;20259;-74
2022/07/19 00:54:56;;;;;;;16.85;10.95;;;;;;;;;;6238295;28;20285;-76
2022/07/19 00:58:20;;;;;;;11.45;10.32;;;;;;;;;;6235333;28;20818;-75
2022/07/19 01:01:42;;;;;;;12.88;11.48;;;;;;;;;;6232436;28;20577;-73
2022/07/19 01:05:03;;;;;;;10.77;9.75;;;;;;;;;;6237550;28;20850;-75
2022/07/19 01:08:26;;;;;;;11.07;10.05;;;;;;;;;;6238645;28;20223;-75
2022/07/19 01:11:48;;;;;;;12.98;11.43;;;;;;;;;;6241465;28;20322;-74
2022/07/19 01:15:17;;;;;;;11.07;9.98;;;;;;;;;;6236363;28;20236;-74
2022/07/19 01:18:38;;;;;;;12.25;11.05;;;;;;;;;;6240662;28;20231;-74
2022/07/19 01:22:00;;;;;;;9.65;8.75;;;;;;;;;;6239101;28;20236;-75
2022/07/19 01:25:23;;;;;;;11.88;10.63;;;;;;;;;;6241949;28;20223;-74
2022/07/19 01:28:44;;;;;;;11.18;10.27;;;;;;;;;;6239382;28;20613;-75
2022/07/19 01:32:05;;;;;;;10.02;9.05;;;;;;;;;;6238636;28;20260;-75
2022/07/19 01:35:26;;;;;;;12.13;9.73;;;;;;;;;;6222828;28;20247;-75
2022/07/19 01:38:48;;;;;;;10.95;9.95;;;;;;;;;;6227282;28;20596;-75
2022/07/19 01:42:09;;;;;;;10.48;9.48;;;;;;;;;;6238236;28;20232;-74
2022/07/19 01:45:29;;;;;;;12.27;9.77;;;;;;;;;;6239454;28;20231;-74
2022/07/19 01:48:49;;;;;;;11.70;10.52;;;;;;;;;;6242043;28;20246;-73
2022/07/19 01:52:10;;;;;;;10.68;9.60;;;;;;;;;;6240339;28;20609;-74
2022/07/19 01:55:32;;;;;;;11.82;10.80;;;;;;;;;;6239878;28;20310;-74
2022/07/19 01:58:52;;;;;;;11.32;10.23;;;;;;;;;;6241558;28;20552;-76
2022/07/19 02:02:12;;;;;;;10.07;9.18;;;;;;;;;;6238167;28;20851;-75
2022/07/19 02:05:33;;;;;;;10.98;10.07;;;;;;;;;;6243101;28;20290;-74
2022/07/19 02:08:53;;;;;;;10.55;9.55;;;;;;;;;;6238077;28;20644;-74
2022/07/19 02:12:15;;;;;;;11.75;10.65;;;;;;;;;;6235271;28;20322;-74
2022/07/19 02:15:36;;;;;;;10.90;9.90;;;;;;;;;;6235379;28;20232;-74
2022/07/19 02:18:57;;;;;;;12.00;10.45;;;;;;;;;;6237992;28;20231;-74
2022/07/19 02:22:18;;;;;;;11.18;10.02;;;;;;;;;;6236869;28;20243;-75
2022/07/19 02:25:38;;;;;;;10.90;9.90;;;;;;;;;;6236961;28;20224;-75
2022/07/19 02:29:00;;;;;;;10.68;9.70;;;;;;;;;;6233778;28;20362;-74
2022/07/19 02:32:23;;;;;;;10.82;9.82;;;;;;;;;;6224028;28;20231;-74
2022/07/19 02:35:44;;;;;;;10.98;9.85;;;;;;;;;;6231020;28;20510;-76
2022/07/19 02:39:05;;;;;;;11.27;10.18;;;;;;;;;;6234427;28;20239;-73
2022/07/19 02:42:26;;;;;;;10.13;9.23;;;;;;;;;;6238798;28;20231;-75
2022/07/19 02:45:48;;;;;;;10.95;9.95;;;;;;;;;;6235523;28;20488;-76
2022/07/19 02:49:08;;;;;;;12.15;10.95;;;;;;;;;;6245618;28;20236;-75
2022/07/19 02:52:29;;;;;;;12.32;11.02;;;;;;;;;;6246347;28;20224;-74
2022/07/19 02:55:50;;;;;;;14.40;12.80;;;;;;;;;;6237451;28;20240;-76
2022/07/19 02:59:11;;;;;;;15.27;13.75;;;;;;;;;;6238240;28;21565;-75
2022/07/19 03:02:33;;;;;;;13.52;10.93;;;;;;;;;;6239957;28;20252;-75
2022/07/19 03:05:54;;;;;;;11.48;10.48;;;;;;;;;;6244392;28;20350;-75
2022/07/19 03:09:15;;;;;;;93.10;85.68;;;;;;;;;;6238808;28;20352;-75
2022/07/19 03:12:35;;;;;;;30.30;27.33;;;;;;;;;;6250333;28;20220;-76
2022/07/19 03:15:56;;;;;;;13.75;12.32;;;;;;;;;;6239755;28;20558;-76
2022/07/19 03:19:18;;;;;;;17.38;15.60;;;;;;;;;;6245702;28;22005;-74
2022/07/19 03:22:39;;;;;;;16.58;13.85;;;;;;;;;;6234289;28;20974;-74
2022/07/19 03:25:59;;;;;;;15.90;14.35;;;;;;;;;;6242290;28;20232;-74
2022/07/19 03:29:20;;;;;;;16.17;14.48;;;;;;;;;;6246646;28;20311;-74
2022/07/19 03:32:41;;;;;;;15.63;14.02;;;;;;;;;;6243946;28;21212;-74
2022/07/19 03:36:03;;;;;;;13.02;11.73;;;;;;;;;;6242028;28;20236;-76
2022/07/19 03:39:23;;;;;;;14.88;13.27;;;;;;;;;;6241570;28;20224;-73
2022/07/19 03:42:44;;;;;;;12.93;11.68;;;;;;;;;;6242253;28;20632;-75
2022/07/19 03:46:05;;;;;;;13.63;11.80;;;;;;;;;;6237462;28;20264;-75
2022/07/19 03:49:25;;;;;;;11.52;10.50;;;;;;;;;;6244267;28;20236;-74
2022/07/19 03:52:47;;;;;;;10.55;9.55;;;;;;;;;;6245369;28;21879;-76
2022/07/19 03:56:08;;;;;;;17.00;11.57;;;;;;;;;;6235258;28;20224;-75
2022/07/19 03:59:28;;;;;;;11.25;10.07;;;;;;;;;;6245068;28;20460;-75
2022/07/19 04:02:49;;;;;;;10.93;9.85;;;;;;;;;;6228400;28;20346;-75
2022/07/19 04:06:10;;;;;;;12.05;10.82;;;;;;;;;;6246146;28;20227;-75
2022/07/19 04:09:32;;;;;;;12.45;11.18;;;;;;;;;;6243534;28;20232;-75
2022/07/19 04:12:52;;;;;;;18.42;16.73;;;;;;;;;;6242912;28;20577;-75
2022/07/19 04:16:13;;;;;;;17.17;15.38;;;;;;;;;;6235211;28;21324;-75
2022/07/19 04:19:35;;;;;;;13.90;12.40;;;;;;;;;;6246570;28;20593;-75
2022/07/19 04:22:56;;;;;;;13.38;12.10;;;;;;;;;;6241392;28;20228;-75
2022/07/19 04:26:19;;;;;;;11.73;10.65;;;;;;;;;;6239461;28;20236;-74
2022/07/19 04:29:39;;;;;;;10.65;9.65;;;;;;;;;;6241306;28;20572;-75
2022/07/19 04:33:00;;;;;;;11.60;9.88;;;;;;;;;;6243428;28;20683;-76
2022/07/19 04:36:20;;;;;;;11.07;9.93;;;;;;;;;;6245479;28;20235;-77
2022/07/19 04:39:41;;;;;;;9.68;8.57;;;;;;;;;;6239086;28;20243;-76
2022/07/19 04:43:05;;;;;;;13.45;11.88;;;;;;;;;;6237785;28;20259;-75
2022/07/19 04:46:26;;;;;;;12.32;10.70;;;;;;;;;;6241769;28;20354;-76
2022/07/19 04:49:47;;;;;;;12.43;11.23;;;;;;;;;;6242834;28;20325;-75
2022/07/19 04:53:08;;;;;;;11.02;9.77;;;;;;;;;;6242515;28;20216;-75
2022/07/19 04:56:28;;;;;;;12.85;10.75;;;;;;;;;;6236156;28;21706;-75
2022/07/19 04:59:50;;;;;;;12.98;11.68;;;;;;;;;;6241364;28;20235;-76
2022/07/19 05:03:11;;;;;;;36.25;33.08;;;;;;;;;;6242002;28;20279;-76
2022/07/19 05:06:31;;;;;;;21.17;19.35;;;;;;;;;;6236650;28;20232;-75
2022/07/19 05:09:52;;;;;;;15.45;11.93;;;;;;;;;;6241892;28;20235;-75
2022/07/19 05:13:13;;;;;;;10.10;9.20;;;;;;;;;;6238758;28;20302;-75
2022/07/19 05:16:34;;;;;;;11.43;10.27;;;;;;;;;;6240911;28;20239;-74
2022/07/19 05:19:55;;;;;;;10.60;9.50;;;;;;;;;;6237936;28;20342;-74
2022/07/19 05:23:15;;;;;;;9.05;8.15;;;;;;;;;;6228204;28;20235;-76
2022/07/19 05:26:38;;;;;;;10.15;9.27;;;;;;;;;;6244821;28;20235;-76
2022/07/19 05:29:59;;;;;;;9.93;8.60;;;;;;;;;;6239061;28;20504;-76
2022/07/19 05:33:21;;;;;;;9.77;7.90;;;;;;;;;;6226427;28;20322;-76
2022/07/19 05:36:41;;;;;;;11.05;9.32;;;;;;;;;;6229285;28;20616;-76
2022/07/19 05:40:02;;;;;;;9.82;8.88;;;;;;;;;;6232834;28;20228;-76
2022/07/19 05:46:30;;;;;;;10.40;9.18;;;;;;;22.12;60.82;101923.19;6287981;27;20314;-70
2022/07/19 05:49:51;;;;;;;9.55;8.65;;;;;;;21.62;61.96;101922.88;6284171;28;20693;-73
2022/07/19 05:53:12;;;;;;;10.93;8.52;;;;;;;21.59;61.48;101927.88;6300930;28;20242;-72
2022/07/19 05:56:33;;;;;;;9.77;8.80;;;;;;;21.56;60.58;101920.00;6305378;28;20800;-70
2022/07/19 05:59:54;;;;;;;9.10;8.20;;;;;;;21.83;60.74;101923.09;6310050;27;20225;-71
2022/07/19 06:03:17;;;;;;;8.63;7.68;;;;;;;21.73;58.93;101921.59;6303606;27;20230;-72
2022/07/19 06:06:37;;;;;;;8.45;7.65;;;;;;;21.94;59.54;101921.81;6304731;28;20229;-70
2022/07/19 06:09:58;;;;;;;8.32;7.53;;;;;;;22.14;59.35;101915.59;6293778;28;20226;-70
2022/07/19 06:13:20;;;;;;;9.13;7.30;;;;;;;22.16;59.00;101924.50;6303444;28;20840;-70
2022/07/19 06:16:41;;;;;;;9.10;6.72;;;;;;;22.18;58.84;101929.81;6301658;28;20242;-69
2022/07/19 06:20:04;;;;;;;8.23;7.43;;;;;;;22.56;58.81;101925.13;6307985;27;20226;-70
2022/07/19 06:23:25;;;;;;;8.57;7.72;;;;;;;22.65;57.89;101922.16;6302750;28;21381;-72
2022/07/19 06:26:46;;;;;;;9.13;7.68;;;;;;;22.83;57.30;101932.75;6301343;28;20225;-71
2022/07/19 06:30:09;;;;;;;9.02;8.13;;;;;;;22.88;57.16;101927.56;6300249;27;20690;-72
2022/07/19 06:33:30;;;;;;;7.10;6.50;;;;;;;22.81;56.73;101932.97;6302586;28;20225;-73
2022/07/19 06:36:52;;;;;;;7.38;6.78;;;;;;;23.12;56.21;101937.38;6293321;27;20321;-70
2022/07/19 06:40:13;;;;;;;8.07;6.60;;;;;;;23.13;55.05;101939.97;6303887;27;20504;-72
2022/07/19 06:43:35;;;;;;;8.23;5.47;;;;;;;23.05;54.76;101945.56;6275856;28;20238;-72
2022/07/19 06:46:55;;;;;;;8.68;6.60;;;;;;;23.03;53.10;101942.13;6272558;28;20250;-71
2022/07/19 06:50:16;;;;;;;8.10;6.68;;;;;;;23.20;54.49;101931.78;6276908;28;20321;-71
2022/07/19 06:53:39;;;;;;;7.68;6.10;;;;;;;23.42;53.12;101934.41;6275613;28;20238;-70
2022/07/19 06:57:01;;;;;;;6.43;5.68;;;;;;;23.75;53.92;101937.53;6261232;28;20370;-71
2022/07/19 07:00:22;;;;;;;10.32;6.60;;;;;;;23.82;52.67;101938.47;6251371;28;20224;-71
2022/07/19 07:03:43;;;;;;;7.18;6.43;;;;;;;24.03;52.74;101935.66;6267165;28;20676;-71
2022/07/19 07:07:04;;;;;;;7.97;6.60;;;;;;;24.15;51.69;101938.78;6259753;28;20303;-71
2022/07/19 07:10:27;;;;;;;11.00;6.88;;;;;;;24.03;50.61;101941.16;6289982;28;20227;-72
2022/07/19 07:13:48;;;;;;;11.43;6.43;;;;;;;24.00;50.31;101940.72;6283326;28;20239;-70
2022/07/19 07:17:09;;;;;;;8.45;5.88;;;;;;;24.09;50.17;101936.81;6276910;28;20234;-69
2022/07/19 07:20:30;;;;;;;6.93;6.15;;;;;;;24.25;49.88;101936.53;6281425;28;20242;-69
2022/07/19 07:23:51;;;;;;;8.10;5.50;;;;;;;24.27;49.71;101940.81;6274973;28;20594;-68
2022/07/19 07:27:13;;;;;;;10.52;6.22;;;;;;;24.41;49.85;101938.97;6283915;28;20222;-68
2022/07/19 07:30:34;;;;;;;5.63;4.90;;;;;;;24.74;51.42;101947.53;6283996;28;20240;-69
2022/07/19 07:33:55;;;;;;;7.32;4.90;;;;;;;24.94;50.58;101948.50;6283812;28;20663;-71
2022/07/19 07:37:17;;;;;;;8.23;5.55;;;;;;;24.91;48.95;101943.41;6283813;28;20223;-70
2022/07/19 07:40:37;;;;;;;6.30;5.70;;;;;;;24.97;48.83;101948.94;6287199;28;20227;-69
2022/07/19 07:44:00;;;;;;;10.57;6.70;;;;;;;25.26;48.96;101943.13;6280962;28;20290;-69
2022/07/19 07:47:21;;;;;;;6.40;5.80;;;;;;;25.20;47.89;101943.13;6278526;28;20237;-70
2022/07/19 07:50:42;;;;;;;8.65;6.40;;;;;;;25.27;47.81;101941.22;6272947;28;20230;-71
2022/07/19 07:54:03;;;;;;;8.75;5.90;;;;;;;25.15;47.25;101934.59;6287409;28;20227;-71
2022/07/19 07:57:24;;;;;;;6.05;5.43;;;;;;;25.23;47.56;101934.41;6280742;28;20235;-70
2022/07/19 08:00:46;;;;;;;7.43;6.65;;;;;;;25.50;47.52;101935.38;6283120;28;20231;-73
2022/07/19 08:04:07;;;;;;;7.55;6.45;;;;;;;25.63;47.45;101929.91;6284552;28;20239;-72
2022/07/19 08:07:29;;;;;;;8.25;6.68;;;;;;;25.84;47.37;101929.72;6281524;28;21083;-72
2022/07/19 08:10:49;;;;;;;6.90;6.20;;;;;;;25.88;46.73;101918.06;6286552;28;20223;-72
2022/07/19 08:14:10;;;;;;;8.68;5.47;;;;;;;25.91;46.51;101922.31;6282382;28;20238;-75
2022/07/19 08:17:32;;;;;;;11.48;7.22;;;;;;;26.07;46.94;101916.38;6283125;28;20248;-73
2022/07/19 08:20:53;;;;;;;7.57;6.72;;;;;;;26.13;46.62;101919.16;6286988;28;20234;-72
2022/07/19 08:24:14;;;;;;;9.18;6.30;;;;;;;26.10;46.21;101924.25;6286207;28;20231;-74
2022/07/19 08:27:35;;;;;;;6.07;5.57;;;;;;;26.36;46.09;101915.09;6283585;28;20668;-76
2022/07/19 08:30:56;;;;;;;6.28;5.57;;;;;;;26.40;45.68;101906.16;6275699;28;20222;-74
2022/07/19 08:34:18;;;;;;;7.53;5.68;;;;;;;26.53;44.26;101906.16;6282648;28;20603;-73
2022/07/19 08:37:39;;;;;;;7.30;4.97;;;;;;;26.58;43.59;101894.41;6279747;28;20245;-71
2022/07/19 08:41:02;;;;;;;7.05;6.35;;;;;;;26.69;43.89;101891.00;6289940;28;20214;-72
2022/07/19 08:44:23;;;;;;;6.32;4.78;;;;;;;26.90;44.27;101882.44;6279429;28;20222;-71
2022/07/19 08:47:45;;;;;;;6.75;5.50;;;;;;;27.17;43.55;101889.56;6273605;28;20226;-71
2022/07/19 08:51:09;;;;;;;5.13;4.45;;;;;;;27.40;43.48;101883.50;6282203;28;20722;-68
2022/07/19 08:54:30;;;;;;;7.80;5.30;;;;;;;27.40;43.94;101886.28;6299367;28;20796;-73
2022/07/19 08:58:01;;;;;;;9.38;5.82;;;;;;;27.64;44.03;101886.31;6297313;28;20238;-69
2022/07/19 09:01:23;;;;;;;7.45;5.53;;;;;;;27.68;42.30;101879.25;6289770;28;20222;-71
2022/07/19 09:04:45;;;;;;;6.90;5.10;;;;;;;27.66;42.23;101872.25;6296841;28;20334;-72
2022/07/19 09:08:13;;;;;;;5.70;5.20;;;;;;;27.67;41.80;101877.56;6291722;28;20231;-71
2022/07/19 09:11:35;;;;;;;6.63;3.85;;;;;;;27.78;40.96;101872.38;6298716;28;20333;-71
2022/07/19 09:14:58;;;;;;;5.30;4.80;;;;;;;27.88;41.33;101868.03;6301114;28;20337;-72
2022/07/19 09:18:22;;;;;;;8.18;5.25;;;;;;;27.94;41.17;101878.22;6293512;28;20301;-70
2022/07/19 09:21:52;;;;;;;5.82;5.05;;;;;;;27.94;41.26;101883.75;6303332;28;20226;-71
2022/07/19 09:25:14;;;;;;;5.55;4.80;;;;;;;28.04;40.77;101881.34;6305101;28;20483;-64
2022/07/19 09:28:36;;;;;;;5.20;4.30;;;;;;;27.93;38.55;101876.53;6295207;28;20672;-66
2022/07/19 09:32:07;;;;;;;6.75;4.50;;;;;;;28.00;39.99;101877.34;6295706;28;20234;-66
2022/07/19 09:35:37;;;;;;;5.18;4.72;;;;;;;28.28;40.33;101874.97;6293803;28;20218;-65
2022/07/19 09:38:58;;;;;;;4.45;4.05;;;;;;;28.24;38.88;101873.72;6300398;28;20310;-65
2022/07/19 09:42:23;;;;;;;5.00;4.53;;;;;;;28.43;38.11;101869.06;6295941;28;20227;-66
2022/07/19 09:45:44;;;;;;;4.68;4.28;;;;;;;28.69;39.14;101871.56;6295614;28;20234;-64
2022/07/19 09:49:07;;;;;;;8.48;4.78;;;;;;;28.94;37.63;101874.25;6292107;28;20666;-66
2022/07/19 09:52:29;;;;;;;4.55;4.10;;;;;;;28.81;37.74;101872.47;6283114;28;20234;-64
2022/07/19 09:55:51;;;;;;;4.95;4.45;;;;;;;28.82;37.81;101879.75;6263673;28;20519;-66
2022/07/19 09:59:14;;;;;;;7.13;4.45;;;;;;;28.80;38.65;101873.56;6261104;28;20227;-66
2022/07/19 10:02:38;;;;;;;6.95;4.28;;;;;;;28.85;39.27;101878.44;6264949;28;20226;-65
2022/07/19 10:05:59;;;;;;;7.35;4.85;;;;;;;28.83;39.88;101872.28;6258333;28;20482;-67
2022/07/19 10:09:22;;;;;;;6.07;3.78;;;;;;;29.13;39.61;101873.16;6260523;28;20231;-67
2022/07/19 10:12:45;;;;;;;7.07;6.03;;;;;;;29.05;39.00;101867.91;6260712;28;20227;-66
2022/07/19 10:16:13;;;;;;;5.32;4.80;;;;;;;29.17;38.66;101868.84;6258981;28;20264;-65
2022/07/19 10:19:39;;;;;;;4.82;3.90;;;;;;;29.43;37.93;101867.63;6293081;28;20239;-67
2022/07/19 10:23:01;;;;;;;4.97;3.92;;;;;;;29.50;37.19;101860.06;6287790;28;20309;-65
2022/07/19 10:26:35;;;;;;;6.95;4.70;;;;;;;29.53;38.09;101854.00;6280018;28;20243;-64
2022/07/19 10:30:20;;;;;;;4.70;3.60;;;;;;;29.79;37.46;101853.66;6282456;28;20372;-65
2022/07/19 10:33:42;;;;;;;7.97;4.05;;;;;;;29.71;36.24;101840.03;6289568;28;20529;-65
2022/07/19 10:37:04;;;;;;;6.70;4.95;;;;;;;29.80;36.13;101846.97;6276342;28;20231;-65
2022/07/19 10:40:37;;;;;;;3.90;3.58;;;;;;;30.05;35.52;101841.19;6287987;28;20260;-66
2022/07/19 10:44:08;;;;;;;5.18;3.88;;;;;;;29.74;34.97;101834.03;6287389;28;20309;-66
2022/07/19 10:47:59;;;;;;;4.00;3.60;;;;;;;30.39;35.33;101830.13;6282062;28;20229;-66
2022/07/19 10:51:30;;;;;;;3.13;2.92;;;;;;;29.93;32.41;101846.75;6287003;28;20594;-66
2022/07/19 10:55:27;;;;;;;4.07;3.67;;;;;;;30.24;34.02;101840.00;6290881;28;20230;-66
2022/07/19 10:58:49;;;;;;;2.78;2.58;;;;;;;30.23;33.31;101832.75;6286101;28;20230;-64
2022/07/19 11:02:24;;;;;;;4.07;2.97;;;;;;;30.40;32.18;101842.06;6292225;28;20234;-64
2022/07/19 11:05:48;;;;;;;3.53;3.22;;;;;;;30.55;31.88;101825.72;6295810;28;20219;-65
2022/07/19 11:09:11;;;;;;;3.33;3.03;;;;;;;30.93;32.21;101816.81;6287277;28;20483;-66
2022/07/19 11:12:36;;;;;;;3.08;2.78;;;;;;;31.28;31.61;101823.09;6282246;28;20234;-65
2022/07/19 11:15:58;;;;;;;3.15;2.65;;;;;;;31.33;30.35;101824.00;6290821;28;20302;-65
2022/07/19 11:19:18;;;;;;;4.30;2.40;;;;;;;31.72;28.09;101818.63;6295340;28;20235;-66
2022/07/19 11:22:42;;;;;;;2.72;2.53;;;;;;;31.38;30.89;101812.97;6290612;28;20234;-65
2022/07/19 11:26:10;;;;;;;3.75;2.75;;;;;;;30.84;29.40;101812.69;6297547;28;20251;-64
2022/07/19 11:29:53;;;;;;;3.28;2.83;;;;;;;30.99;29.07;101816.66;6291730;28;20526;-65
2022/07/19 11:33:17;;;;;;;2.05;1.65;;;;;;;31.28;28.35;101815.56;6295486;28;20254;-63
2022/07/19 11:36:38;;;;;;;4.32;4.03;;;;;;;31.82;29.77;101813.19;6291079;28;20243;-66
2022/07/19 11:39:59;;;;;;;3.10;2.90;;;;;;;31.37;29.51;101816.03;6287447;28;20249;-65
2022/07/19 11:43:22;;;;;;;5.07;2.97;;;;;;;31.75;30.97;101816.16;6290747;28;20242;-75
2022/07/19 11:46:45;;;;;;;3.92;3.45;;;;;;;31.92;30.05;101802.19;6290540;28;20317;-82
2022/07/19 11:50:07;;;;;;;3.22;2.97;;;;;;;31.37;30.45;101808.50;6298104;28;20214;-82
2022/07/19 11:53:28;;;;;;;3.47;2.63;;;;;;;31.52;30.60;101803.22;6295249;28;20218;-75
2022/07/19 11:56:49;;;;;;;3.92;3.63;;;;;;;31.94;32.83;101806.47;6294503;28;20238;-72
2022/07/19 12:00:12;;;;;;;2.83;2.53;;;;;;;31.94;30.32;101797.28;6300449;28;20231;-79
2022/07/19 12:03:34;;;;;;;4.40;3.13;;;;;;;32.26;30.43;101801.94;6282309;28;20223;-71
2022/07/19 12:07:00;;;;;;;3.08;2.85;;;;;;;32.83;30.58;101805.28;6290359;28;20531;-70
2022/07/19 12:10:44;;;;;;;2.53;2.33;;;;;;;33.22;29.62;101797.63;6286768;28;20646;-70
2022/07/19 12:14:17;;;;;;;3.70;3.42;;;;;;;32.91;29.44;101799.22;6282672;28;20553;-70
2022/07/19 12:17:40;;;;;;;4.43;2.60;;;;;;;33.45;28.58;101793.66;6276827;28;20295;-72
2022/07/19 12:21:40;;;;;;;4.97;4.55;;;;;;;33.80;29.71;101791.19;6277786;28;20231;-71
2022/07/19 12:25:02;;;;;;;4.40;3.47;;;;;;;33.98;29.87;101779.59;6252768;28;20230;-71
2022/07/19 12:28:26;;;;;;;2.80;2.60;;;;;;;34.26;28.06;101784.84;6298853;28;20615;-70
2022/07/19 12:31:49;;;;;;;3.78;3.13;;;;;;;32.92;28.78;101786.91;6292755;28;20501;-69
2022/07/19 12:35:14;;;;;;;4.35;2.75;;;;;;;33.39;28.49;101783.53;6295934;28;20648;-71
2022/07/19 12:38:35;;;;;;;3.90;2.35;;;;;;;33.55;27.32;101775.03;6288691;28;20231;-70
2022/07/19 12:41:58;;;;;;;4.38;2.92;;;;;;;33.53;28.18;101773.63;6286505;28;20226;-70
2022/07/19 12:45:22;;;;;;;6.05;4.07;;;;;;;34.34;29.19;101777.88;6287613;28;20226;-69
2022/07/19 12:48:43;;;;;;;6.28;5.88;;;;;;;34.80;28.85;101778.97;6296490;28;20427;-70
2022/07/19 12:52:05;;;;;;;6.22;5.75;;;;;;;35.22;27.91;101768.44;6298148;28;20253;-70
2022/07/19 12:55:28;;;;;;;7.38;3.35;;;;;;;34.88;27.36;101776.44;6293357;28;20542;-69
2022/07/19 13:02:28;;;;;;;2.92;2.70;;;;;;;36.10;26.88;101767.06;6289190;28;20231;-69
2022/07/19 13:05:48;;;;;;;3.30;3.08;;;;;;;36.80;25.45;101769.66;6298332;28;20515;-69
2022/07/19 13:09:11;;;;;;;3.03;2.10;;;;;;;38.89;23.94;101763.56;6299115;28;20239;-69
2022/07/19 13:12:32;;;;;;;8.02;2.85;;;;;;;40.21;21.09;101756.59;6295433;28;20215;-69
2022/07/19 13:15:53;;;;;;;3.53;2.90;;;;;;;40.37;21.31;101750.31;6297593;28;20242;-68
2022/07/19 13:19:14;;;;;;;3.25;2.60;;;;;;;42.85;19.97;101749.38;6294759;28;20223;-70
2022/07/19 13:22:36;;;;;;;3.58;2.15;;;;;;;43.86;18.99;101750.88;6294311;28;20249;-70
2022/07/19 13:25:58;;;;;;;3.00;2.70;;;;;;;43.70;18.65;101749.75;6298433;28;20626;-69
2022/07/19 13:29:19;;;;;;;2.78;2.58;;;;;;;42.86;19.48;101742.53;6290912;28;20234;-70
2022/07/19 13:32:40;;;;;;;5.03;4.55;;;;;;;43.29;18.11;101742.56;6285169;28;20226;-70
2022/07/19 13:36:01;;;;;;;8.80;7.90;;;;;;;44.49;18.36;101736.59;6289447;28;20226;-69
2022/07/19 13:39:22;;;;;;;5.38;3.13;;;;;;;42.45;17.95;101746.94;6290732;28;20230;-70
2022/07/19 13:42:44;;;;;;;3.55;2.95;;;;;;;41.55;19.10;101730.38;6287141;28;20242;-70
2022/07/19 13:46:06;;;;;;;2.83;2.63;;;;;;;42.08;19.50;101731.22;6283718;28;20234;-70
2022/07/19 13:49:27;;;;;;;2.85;2.65;;;;;;;40.49;19.75;101724.38;6303325;28;20599;-70
2022/07/19 13:52:48;;;;;;;2.45;2.25;;;;;;;39.82;19.57;101718.31;6304091;28;20635;-71
2022/07/19 13:56:10;;;;;;;5.93;2.60;;;;;;;40.74;20.18;101723.81;6301355;28;20261;-71
2022/07/19 13:59:33;;;;;;;4.28;2.80;;;;;;;41.06;20.60;101725.63;6297954;28;20235;-69
2022/07/19 14:02:54;;;;;;;4.18;3.38;;;;;;;41.24;20.74;101716.16;6305490;28;20240;-69
2022/07/19 14:06:15;;;;;;;2.78;2.50;;;;;;;37.33;22.30;101708.00;6311434;28;20230;-70
2022/07/19 14:09:37;;;;;;;2.95;2.28;;;;;;;37.47;23.04;101706.22;6315354;28;20230;-70
2022/07/19 14:12:58;;;;;;;3.00;2.72;;;;;;;38.62;23.02;101690.00;6306996;28;20234;-69
2022/07/19 14:16:20;;;;;;;4.05;2.50;;;;;;;38.61;22.69;101695.97;6311143;28;20219;-68
2022/07/19 14:19:41;;;;;;;4.50;2.42;;;;;;;38.17;22.00;101694.25;6310460;28;20321;-70
2022/07/19 14:23:02;;;;;;;3.38;2.78;;;;;;;37.23;22.19;101697.69;6308056;28;20589;-70
2022/07/19 14:26:23;;;;;;;3.30;2.95;;;;;;;37.28;23.40;101688.38;6312744;28;20288;-70
2022/07/19 14:29:44;;;;;;;3.05;2.85;;;;;;;36.91;22.30;101685.25;6313523;28;20270;-69
2022/07/19 14:33:06;;;;;;;6.80;3.03;;;;;;;36.49;23.54;101691.38;6313261;28;20626;-71
2022/07/19 14:36:27;;;;;;;2.70;2.50;;;;;;;36.50;23.55;101684.63;6311242;28;20234;-70
2022/07/19 14:39:48;;;;;;;11.20;2.95;;;;;;;36.84;23.79;101677.94;6314250;28;20238;-70
2022/07/19 14:43:08;;;;;;;5.78;3.15;;;;;;;37.36;23.03;101677.34;6310052;28;20223;-69
2022/07/19 14:46:29;;;;;;;3.95;3.03;;;;;;;37.68;23.63;101675.91;6307070;28;20223;-70
2022/07/19 14:49:51;;;;;;;3.72;2.85;;;;;;;37.74;23.85;101680.34;6308964;28;20246;-70
2022/07/19 14:53:13;;;;;;;3.60;2.40;;;;;;;37.41;21.90;101663.22;6308351;28;20273;-70
2022/07/19 14:56:34;;;;;;;4.28;3.85;;;;;;;37.75;23.12;101665.13;6308980;28;20270;-69
2022/07/19 14:59:55;;;;;;;3.95;3.60;;;;;;;36.49;22.76;101664.13;6311601;28;20298;-69
2022/07/19 15:03:16;;;;;;;3.80;2.45;;;;;;;36.43;23.27;101656.00;6311830;28;20222;-70
2022/07/19 15:06:38;;;;;;;5.15;2.92;;;;;;;37.14;24.06;101650.75;6311251;28;20599;-70
2022/07/19 15:09:59;;;;;;;3.35;2.88;;;;;;;37.78;24.70;101661.72;6320024;27;20234;-69
2022/07/19 15:13:20;;;;;;;3.75;3.13;;;;;;;37.63;23.91;101652.28;6311869;28;20241;-70
2022/07/19 15:16:41;;;;;;;5.43;3.13;;;;;;;36.30;22.97;101639.75;6310858;28;20227;-70
2022/07/19 15:20:02;;;;;;;5.43;4.20;;;;;;;36.83;24.32;101638.88;6310593;28;20230;-71
2022/07/19 15:23:25;;;;;;;4.70;3.17;;;;;;;37.27;23.92;101638.84;6304731;28;20398;-70
2022/07/19 15:26:47;;;;;;;3.50;2.70;;;;;;;37.64;22.57;101639.88;6313451;28;20234;-69
2022/07/19 15:30:08;;;;;;;4.22;2.67;;;;;;;37.87;23.87;101640.22;6308170;28;20559;-70
2022/07/19 15:33:29;;;;;;;5.90;3.45;;;;;;;37.77;22.38;101643.13;6306214;28;20313;-70
2022/07/19 15:36:50;;;;;;;4.38;2.75;;;;;;;37.79;22.80;101641.72;6307510;28;20267;-69
2022/07/19 15:40:12;;;;;;;4.32;2.53;;;;;;;37.71;22.80;101631.09;6310888;28;20238;-69
2022/07/19 15:43:34;;;;;;;5.75;3.05;;;;;;;37.76;23.76;101624.56;6312264;28;20560;-69
2022/07/19 15:46:54;;;;;;;3.45;2.38;;;;;;;37.77;23.72;101623.41;6312156;28;20222;-70
2022/07/19 15:50:17;;;;;;;3.25;2.95;;;;;;;37.62;23.67;101622.47;6306627;28;20231;-70
2022/07/19 15:53:39;;;;;;;3.38;2.75;;;;;;;37.51;23.11;101614.44;6297278;28;20226;-70
2022/07/19 15:57:01;;;;;;;3.30;2.33;;;;;;;37.47;22.91;101616.97;6311439;28;20273;-70
2022/07/19 16:00:23;;;;;;;4.53;3.35;;;;;;;37.38;22.97;101617.94;6306640;28;20231;-71
2022/07/19 16:03:44;;;;;;;4.15;3.83;;;;;;;37.19;23.08;101612.19;6306635;28;20226;-69
2022/07/19 16:07:05;;;;;;;2.80;2.40;;;;;;;37.34;23.86;101609.22;6310295;28;20226;-70
2022/07/19 16:10:25;;;;;;;3.25;2.97;;;;;;;37.41;23.74;101606.91;6310075;28;20676;-70
2022/07/19 16:13:48;;;;;;;3.72;2.63;;;;;;;37.26;23.54;101607.03;6311210;28;20238;-70
2022/07/19 16:17:09;;;;;;;3.42;2.80;;;;;;;37.17;24.19;101606.00;6306268;28;20588;-70
2022/07/19 16:20:31;;;;;;;3.15;2.70;;;;;;;37.10;24.14;101599.88;6310547;28;20278;-71
2022/07/19 16:23:52;;;;;;;2.70;2.50;;;;;;;37.02;24.63;101597.69;6307216;28;20234;-70
2022/07/19 16:27:13;;;;;;;3.30;3.00;;;;;;;37.02;23.82;101592.06;6307276;28;20238;-69
2022/07/19 16:30:36;;;;;;;6.15;3.63;;;;;;;36.93;24.38;101593.84;6308945;28;20237;-69
2022/07/19 16:33:57;;;;;;;4.25;3.85;;;;;;;36.78;23.98;101589.13;6304294;28;20297;-69
2022/07/19 16:37:19;;;;;;;4.50;3.03;;;;;;;36.59;23.55;101584.53;6299901;28;20238;-69
2022/07/19 16:40:39;;;;;;;3.35;3.15;;;;;;;36.68;24.14;101580.78;6312183;28;20227;-71
2022/07/19 16:44:00;;;;;;;2.75;2.55;;;;;;;36.57;23.92;101578.38;6309143;28;20226;-70
2022/07/19 16:47:23;;;;;;;2.85;2.35;;;;;;;36.48;23.91;101578.13;6304182;28;20238;-69
2022/07/19 16:50:44;;;;;;;6.40;3.25;;;;;;;36.37;23.97;101578.44;6310099;28;20611;-70
2022/07/19 16:54:05;;;;;;;4.55;2.92;;;;;;;36.10;22.97;101576.06;6310291;28;20267;-69
2022/07/19 16:57:26;;;;;;;5.68;2.33;;;;;;;35.77;24.26;101572.00;6309593;28;20234;-70